createdAt,value
2023-11-09T00:00:02.410Z,990.44
2023-11-09T00:05:02.432Z,990.4
2023-11-09T00:10:01.960Z,990.4
2023-11-09T00:25:02.852Z,989.81
2023-11-09T00:30:02.307Z,989.62
2023-11-09T00:35:01.973Z,989.48
2023-11-09T00:40:01.763Z,989.4
2023-11-09T00:45:01.988Z,989.49
2023-11-09T00:50:01.435Z,989.29
2023-11-09T00:55:02.251Z,989.22
2023-11-09T01:00:02.887Z,989.23
2023-11-09T01:05:02.127Z,989.25
2023-11-09T01:10:01.781Z,989.21
2023-11-09T01:15:02.330Z,989.36
2023-11-09T01:20:01.585Z,989.29
2023-11-09T01:25:01.426Z,989.3
2023-11-09T01:30:01.334Z,989.39
2023-11-09T01:35:02.455Z,989.42
2023-11-09T01:40:02.089Z,989.35
2023-11-09T01:45:02.032Z,989.23
2023-11-09T01:50:02.285Z,989.11
2023-11-09T01:55:02.405Z,989.22
2023-11-09T02:00:02.048Z,989.17
2023-11-09T02:05:01.673Z,989.17
2023-11-09T02:10:01.306Z,988.95
2023-11-09T02:15:02.046Z,988.83
2023-11-09T02:20:01.897Z,988.59
2023-11-09T02:25:02.309Z,988.47
2023-11-09T02:30:02.148Z,988.67
2023-11-09T02:35:02.420Z,988.68
2023-11-09T02:40:01.606Z,988.53
2023-11-09T02:45:01.932Z,988.43
2023-11-09T02:50:02.184Z,988.52
2023-11-09T02:55:02.044Z,988.38
2023-11-09T03:00:01.874Z,988.27
2023-11-09T03:05:02.181Z,988.16
2023-11-09T03:10:01.480Z,988.01
2023-11-09T03:15:02.006Z,988.06
2023-11-09T03:20:01.380Z,988.1
2023-11-09T03:25:02.019Z,988.24
2023-11-09T03:30:02.040Z,988.04
2023-11-09T03:35:02.078Z,988.1
2023-11-09T03:40:01.499Z,988.16
2023-11-09T03:45:01.565Z,987.89
2023-11-09T03:50:01.923Z,987.82
2023-11-09T03:55:01.618Z,987.8
2023-11-09T04:00:02.037Z,987.81
2023-11-09T04:05:02.254Z,987.8
2023-11-09T04:10:01.746Z,987.98
2023-11-09T04:15:02.300Z,987.78
2023-11-09T04:20:01.766Z,987.75
2023-11-09T04:25:01.953Z,987.77
2023-11-09T04:30:02.437Z,987.66
2023-11-09T04:35:02.317Z,987.7
2023-11-09T04:40:02.261Z,987.55
2023-11-09T04:45:01.740Z,987.59
2023-11-09T04:50:01.365Z,987.53
2023-11-09T04:55:01.968Z,987.54
2023-11-09T05:00:01.940Z,987.52
2023-11-09T05:05:02.224Z,987.56
2023-11-09T05:10:02.138Z,987.65
2023-11-09T05:15:02.058Z,987.54
2023-11-09T05:20:02.162Z,987.55
2023-11-09T05:25:02.159Z,987.45
2023-11-09T05:30:01.854Z,987.3
2023-11-09T05:35:01.546Z,987.31
2023-11-09T05:40:01.342Z,987.27
2023-11-09T05:45:02.064Z,987.21
2023-11-09T05:50:01.237Z,987.21
2023-11-09T05:55:01.634Z,987.21
2023-11-09T06:00:02.184Z,987.34
2023-11-09T06:05:01.708Z,987.43
2023-11-09T06:10:02.096Z,987.49
2023-11-09T06:15:02.259Z,987.52
2023-11-09T06:20:02.224Z,987.49
2023-11-09T06:25:01.992Z,987.57
2023-11-09T06:30:01.413Z,987.55
2023-11-09T06:35:02.005Z,987.59
2023-11-09T06:40:02.823Z,987.56
2023-11-09T06:45:02.346Z,987.6
2023-11-09T06:50:01.947Z,987.58
2023-11-09T06:55:02.128Z,987.62
2023-11-09T07:00:01.746Z,987.56
2023-11-09T07:05:01.822Z,987.7
2023-11-09T07:10:01.264Z,987.65
2023-11-09T07:15:02.123Z,987.61
2023-11-09T07:20:01.691Z,987.68
2023-11-09T07:25:10.350Z,987.66
2023-11-09T07:30:01.515Z,987.71
2023-11-09T07:35:02.095Z,987.69
2023-11-09T07:40:01.338Z,987.73
2023-11-09T07:45:02.031Z,987.71
2023-11-09T07:50:02.167Z,987.71
2023-11-09T07:55:02.167Z,987.74
2023-11-09T08:00:05.273Z,987.79
2023-11-09T08:05:01.576Z,987.92
2023-11-09T08:10:01.715Z,987.94
2023-11-09T08:20:02.327Z,987.9
2023-11-09T08:25:01.463Z,987.83
2023-11-09T08:30:01.769Z,987.82
2023-11-09T08:35:01.398Z,987.91
2023-11-09T08:40:02.243Z,987.94
2023-11-09T08:45:01.950Z,987.92
2023-11-09T08:50:01.888Z,987.78
2023-11-09T08:55:01.893Z,987.77
2023-11-09T09:00:01.585Z,987.74
2023-11-09T09:05:01.400Z,987.81
2023-11-09T09:10:02.153Z,987.79
2023-11-09T09:15:01.303Z,987.73
2023-11-09T09:20:01.368Z,987.71
2023-11-09T09:25:02.135Z,987.71
2023-11-09T09:30:01.841Z,987.68
2023-11-09T09:35:01.393Z,987.73
2023-11-09T09:40:01.793Z,987.78
2023-11-09T09:45:01.305Z,987.78
2023-11-09T09:50:01.887Z,987.9
2023-11-09T09:55:01.592Z,987.92
2023-11-09T10:00:03.663Z,987.98
2023-11-09T10:05:02.437Z,988.02
2023-11-09T10:10:02.126Z,988.06
2023-11-09T10:15:01.562Z,988.07
2023-11-09T10:20:01.443Z,988
2023-11-09T10:25:01.711Z,988.02
2023-11-09T10:30:02.193Z,988.07
2023-11-09T10:35:01.577Z,987.98
2023-11-09T10:40:01.937Z,987.87
2023-11-09T10:45:01.282Z,987.85
2023-11-09T10:50:04.730Z,987.75
2023-11-09T10:55:02.071Z,987.82
2023-11-09T11:00:01.525Z,987.82
2023-11-09T11:05:01.301Z,987.84
2023-11-09T11:10:01.849Z,987.85
2023-11-09T11:15:02.255Z,987.8
2023-11-09T11:20:02.198Z,987.77
2023-11-09T11:25:01.353Z,987.7
2023-11-09T11:30:01.886Z,987.67
2023-11-09T11:35:02.317Z,987.62
2023-11-09T11:40:01.295Z,987.61
2023-11-09T11:45:01.833Z,987.7
2023-11-09T11:50:02.177Z,987.67
2023-11-09T11:55:01.299Z,987.72
2023-11-09T12:00:02.055Z,987.91
2023-11-09T12:05:01.583Z,987.87
2023-11-09T12:10:01.879Z,987.78
2023-11-09T12:15:02.146Z,987.75
2023-11-09T12:20:01.395Z,987.6
2023-11-09T12:25:02.173Z,987.51
2023-11-09T12:30:01.768Z,987.39
2023-11-09T12:35:02.184Z,987.43
2023-11-09T12:40:01.970Z,987.33
2023-11-09T12:45:01.325Z,987.32
2023-11-09T12:50:01.842Z,987.26
2023-11-09T12:55:02.119Z,987.25
2023-11-09T13:00:02.097Z,987.32
2023-11-09T13:05:01.781Z,987.3
2023-11-09T13:10:02.287Z,987.19
2023-11-09T13:15:01.278Z,987.17
2023-11-09T13:20:02.082Z,987.12
2023-11-09T13:25:01.588Z,987.18
2023-11-09T13:30:02.021Z,987.02
2023-11-09T13:35:03.564Z,987.07
2023-11-09T13:40:02.321Z,986.99
2023-11-09T13:45:01.673Z,987.02
2023-11-09T13:50:02.016Z,986.97
2023-11-09T13:55:01.920Z,987.04
2023-11-09T14:00:02.255Z,987.13
2023-11-09T14:05:02.745Z,987.1
2023-11-09T14:10:02.170Z,987.01
2023-11-09T14:15:01.519Z,986.88
2023-11-09T14:20:01.458Z,987.01
2023-11-09T14:25:02.244Z,987.05
2023-11-09T14:30:01.437Z,987.1
2023-11-09T14:35:03.470Z,987.09
2023-11-09T14:40:01.935Z,987.09
2023-11-09T14:45:01.545Z,987.04
2023-11-09T14:50:01.382Z,986.99
2023-11-09T14:55:01.723Z,986.86
2023-11-09T15:00:02.222Z,986.74
2023-11-09T15:05:02.964Z,986.55
2023-11-09T15:10:02.036Z,986.41
2023-11-09T15:15:01.393Z,986.28
2023-11-09T15:20:01.944Z,986.16
2023-11-09T15:25:01.569Z,986.17
2023-11-09T15:30:02.265Z,986.18
2023-11-09T15:35:01.581Z,986.08
2023-11-09T15:40:39.315Z,985.99
2023-11-09T15:45:02.210Z,985.84
2023-11-09T15:50:01.522Z,985.77
2023-11-09T15:55:04.468Z,985.72
2023-11-09T16:00:02.090Z,985.72
2023-11-09T16:05:01.809Z,985.72
2023-11-09T16:10:05.672Z,985.68
2023-11-09T16:15:01.366Z,985.6
2023-11-09T16:20:02.155Z,985.55
2023-11-09T16:25:02.825Z,985.61
2023-11-09T16:30:01.378Z,985.55
2023-11-09T16:35:02.093Z,985.57
2023-11-09T16:40:02.203Z,985.69
2023-11-09T16:45:01.438Z,985.68
2023-11-09T16:50:02.161Z,985.66
2023-11-09T16:55:03.505Z,985.63
2023-11-09T17:00:02.167Z,985.58
2023-11-09T17:05:01.582Z,985.55
2023-11-09T17:10:01.307Z,985.54
2023-11-09T17:15:01.553Z,985.53
2023-11-09T17:20:01.931Z,985.43
2023-11-09T17:25:01.562Z,985.44
2023-11-09T17:30:01.391Z,985.42
2023-11-09T17:35:02.019Z,985.34
2023-11-09T17:40:01.743Z,985.26
2023-11-09T17:45:01.489Z,985.21
2023-11-09T17:50:02.300Z,985.18
2023-11-09T17:55:01.657Z,985.16
2023-11-09T18:00:01.931Z,985.03
2023-11-09T18:05:01.448Z,984.86
2023-11-09T18:10:01.795Z,984.76
2023-11-09T18:15:01.415Z,984.66
2023-11-09T18:20:01.830Z,984.57
2023-11-09T18:25:02.031Z,984.52
2023-11-09T18:30:02.230Z,984.5
2023-11-09T18:35:01.440Z,984.4
2023-11-09T18:40:01.739Z,984.33
2023-11-09T18:45:01.567Z,984.3
2023-11-09T18:51:09.224Z,984.32
2023-11-09T18:55:01.718Z,984.37
2023-11-09T19:00:02.200Z,984.31
2023-11-09T19:05:01.514Z,984.2
2023-11-09T19:10:01.533Z,984.31
2023-11-09T19:15:01.994Z,984.52
2023-11-09T19:20:01.321Z,984.59
2023-11-09T19:25:01.882Z,985.31
2023-11-09T19:30:02.189Z,985.52
2023-11-09T19:35:01.471Z,985.58
2023-11-09T19:40:02.157Z,985.38
2023-11-09T19:45:01.532Z,985.38
2023-11-09T19:50:02.058Z,985.03
2023-11-09T19:55:02.143Z,984.98
2023-11-09T20:00:01.535Z,984.79
2023-11-09T20:05:02.164Z,984.78
2023-11-09T20:10:01.698Z,984.78
2023-11-09T20:15:01.338Z,984.81
2023-11-09T20:20:01.826Z,985
2023-11-09T20:25:02.219Z,985.01
2023-11-09T20:30:01.562Z,984.98
2023-11-09T20:35:02.046Z,984.92
2023-11-09T20:40:02.210Z,984.88
2023-11-09T20:45:02.201Z,984.84
2023-11-09T20:50:02.166Z,984.81
2023-11-09T20:55:01.450Z,984.77
2023-11-09T21:00:01.832Z,984.64
2023-11-09T21:05:01.316Z,984.58
2023-11-09T21:10:02.005Z,984.6
2023-11-09T21:15:02.413Z,984.56
2023-11-09T21:20:01.959Z,984.53
2023-11-09T21:25:02.124Z,984.48
2023-11-09T21:30:01.445Z,984.63
2023-11-09T21:35:01.394Z,984.61
2023-11-09T21:40:01.815Z,984.65
2023-11-09T21:45:02.360Z,984.56
2023-11-09T21:50:01.477Z,984.62
2023-11-09T21:55:01.365Z,984.57
2023-11-09T22:00:02.001Z,984.5
2023-11-09T22:05:01.315Z,984.39
2023-11-09T22:10:02.182Z,984.43
2023-11-09T22:15:02.258Z,984.53
2023-11-09T22:20:01.990Z,984.46
2023-11-09T22:25:02.230Z,984.45
2023-11-09T22:30:02.480Z,984.32
2023-11-09T22:35:01.653Z,984.27
2023-11-09T22:40:01.977Z,984.15
2023-11-09T22:45:01.295Z,984.1
2023-11-09T22:50:01.816Z,984.11
2023-11-09T22:55:02.119Z,984.18
2023-11-09T23:00:01.424Z,984.16
2023-11-09T23:05:01.386Z,984.15
2023-11-09T23:10:01.983Z,984.19
2023-11-09T23:15:02.150Z,984.21
2023-11-09T23:20:08.478Z,984.28
2023-11-09T23:25:01.841Z,984.36
2023-11-09T23:30:02.218Z,984.28
2023-11-09T23:35:01.529Z,984.26
2023-11-09T23:40:01.737Z,984.3
2023-11-09T23:45:01.821Z,984.15
2023-11-09T23:50:02.171Z,984.1
2023-11-09T23:55:02.149Z,984
